createdAt,value
2018-03-14T00:01:34.168Z,4.70
2018-03-14T00:04:02.976Z,4.70
2018-03-14T00:06:31.341Z,4.70
2018-03-14T00:08:59.709Z,4.80
2018-03-14T00:11:28.155Z,4.80
2018-03-14T00:13:56.510Z,4.80
2018-03-14T00:16:25.619Z,4.80
2018-03-14T00:18:54.866Z,4.80
2018-03-14T00:21:23.236Z,4.80
2018-03-14T00:23:51.598Z,4.80
2018-03-14T00:26:19.940Z,4.80
2018-03-14T00:28:48.305Z,4.80
2018-03-14T00:31:16.653Z,4.80
2018-03-14T00:33:44.991Z,4.80
2018-03-14T00:36:13.341Z,4.80
2018-03-14T00:38:41.702Z,4.80
2018-03-14T00:41:10.096Z,4.80
2018-03-14T00:43:38.637Z,4.80
2018-03-14T00:46:07.084Z,4.80
2018-03-14T00:48:35.463Z,4.80
2018-03-14T00:51:04.905Z,4.90
2018-03-14T00:53:33.266Z,4.90
2018-03-14T00:56:01.605Z,4.80
2018-03-14T00:58:30.051Z,4.80
2018-03-14T01:00:58.477Z,4.80
2018-03-14T01:03:26.820Z,4.80
2018-03-14T01:05:55.209Z,4.80
2018-03-14T01:08:23.546Z,4.80
2018-03-14T01:10:51.956Z,4.80
2018-03-14T01:13:20.380Z,4.80
2018-03-14T01:15:48.822Z,4.80
2018-03-14T01:18:17.166Z,4.80
2018-03-14T01:20:45.595Z,4.90
2018-03-14T01:23:14.567Z,4.80
2018-03-14T01:25:42.916Z,4.80
2018-03-14T01:28:11.424Z,4.80
2018-03-14T01:30:39.711Z,4.90
2018-03-14T01:33:08.047Z,4.80
2018-03-14T01:35:36.425Z,4.80
2018-03-14T01:38:05.546Z,4.80
2018-03-14T01:40:34.723Z,4.80
2018-03-14T01:43:03.118Z,4.80
2018-03-14T01:45:31.474Z,4.80
2018-03-14T01:48:00.578Z,4.70
2018-03-14T01:50:29.715Z,4.70
2018-03-14T01:53:10.095Z,4.70
2018-03-14T01:55:38.432Z,4.70
2018-03-14T01:58:06.769Z,4.80
2018-03-14T02:00:35.421Z,4.80
2018-03-14T02:03:03.773Z,4.70
2018-03-14T02:05:32.272Z,4.60
2018-03-14T02:08:00.696Z,4.60
2018-03-14T02:10:29.060Z,4.60
2018-03-14T02:12:57.408Z,4.60
2018-03-14T02:15:25.749Z,4.60
2018-03-14T02:17:54.955Z,4.60
2018-03-14T02:20:23.345Z,4.60
2018-03-14T02:22:51.865Z,4.60
2018-03-14T02:25:20.196Z,4.60
2018-03-14T02:27:48.558Z,4.60
2018-03-14T02:30:17.672Z,4.50
2018-03-14T02:32:46.108Z,4.50
2018-03-14T02:35:14.512Z,4.50
2018-03-14T02:37:42.932Z,4.50
2018-03-14T02:40:11.428Z,4.50
2018-03-14T02:42:39.832Z,4.50
2018-03-14T02:45:08.169Z,4.50
2018-03-14T02:47:36.489Z,4.50
2018-03-14T02:50:04.897Z,4.50
2018-03-14T02:52:33.236Z,4.50
2018-03-14T02:55:01.597Z,4.50
2018-03-14T02:57:29.985Z,4.40
2018-03-14T02:59:58.324Z,4.50
2018-03-14T03:02:26.679Z,4.40
2018-03-14T03:04:55.231Z,4.40
2018-03-14T03:07:23.683Z,4.40
2018-03-14T03:09:52.383Z,4.50
2018-03-14T03:12:21.030Z,4.50
2018-03-14T03:14:50.128Z,4.40
2018-03-14T03:17:19.242Z,4.50
2018-03-14T03:19:47.583Z,4.50
2018-03-14T03:22:15.951Z,4.50
2018-03-14T03:24:44.313Z,4.50
2018-03-14T03:27:12.681Z,4.50
2018-03-14T03:29:41.099Z,4.40
2018-03-14T03:32:09.470Z,4.40
2018-03-14T03:34:37.795Z,4.40
2018-03-14T03:37:06.292Z,4.30
2018-03-14T03:39:35.158Z,4.30
2018-03-14T03:42:04.305Z,4.30
2018-03-14T03:44:32.714Z,4.30
2018-03-14T03:47:01.061Z,4.30
2018-03-14T03:49:29.394Z,4.20
2018-03-14T03:51:57.734Z,4.20
2018-03-14T03:54:26.146Z,4.10
2018-03-14T03:56:54.480Z,4.10
2018-03-14T03:59:22.833Z,4.10
2018-03-14T04:01:51.210Z,4.00
2018-03-14T04:04:19.643Z,4.00
2018-03-14T04:06:47.987Z,4.00
2018-03-14T04:09:16.329Z,4.00
2018-03-14T04:11:44.716Z,4.00
2018-03-14T04:14:13.052Z,4.00
2018-03-14T04:16:41.494Z,4.00
2018-03-14T04:19:09.841Z,4.00
2018-03-14T04:21:38.998Z,4.10
2018-03-14T04:24:07.345Z,4.00
2018-03-14T04:26:35.708Z,4.00
2018-03-14T04:29:04.092Z,4.10
2018-03-14T04:31:32.557Z,4.10
2018-03-14T04:34:00.885Z,4.10
2018-03-14T04:36:29.256Z,4.10
2018-03-14T04:38:57.581Z,4.10
2018-03-14T04:41:25.924Z,4.10
2018-03-14T04:43:54.258Z,4.10
2018-03-14T04:46:22.617Z,4.20
2018-03-14T04:48:51.744Z,4.10
2018-03-14T04:51:20.178Z,4.10
2018-03-14T04:53:49.077Z,4.20
2018-03-14T04:56:17.551Z,4.20
2018-03-14T04:58:45.973Z,4.20
2018-03-14T05:01:14.585Z,4.30
2018-03-14T05:03:42.939Z,4.30
2018-03-14T05:06:11.299Z,4.30
2018-03-14T05:08:39.660Z,4.30
2018-03-14T05:11:08.779Z,4.20
2018-03-14T05:13:37.114Z,4.20
2018-03-14T05:16:05.503Z,4.30
2018-03-14T05:18:33.951Z,4.20
2018-03-14T05:21:02.396Z,4.20
2018-03-14T05:23:31.502Z,4.20
2018-03-14T05:25:59.841Z,4.20
2018-03-14T05:28:28.618Z,4.20
2018-03-14T05:30:56.957Z,4.20
2018-03-14T05:33:25.378Z,4.10
2018-03-14T05:35:53.788Z,4.10
2018-03-14T05:38:22.897Z,4.10
2018-03-14T05:40:51.247Z,4.10
2018-03-14T05:43:19.623Z,4.20
2018-03-14T05:45:47.964Z,4.20
2018-03-14T05:48:16.469Z,4.20
2018-03-14T05:50:44.834Z,4.20
2018-03-14T05:53:13.185Z,4.20
2018-03-14T05:55:41.568Z,4.20
2018-03-14T05:58:09.938Z,4.10
2018-03-14T06:00:38.326Z,4.10
2018-03-14T06:03:06.748Z,4.10
2018-03-14T06:05:35.083Z,4.10
2018-03-14T06:08:03.440Z,4.10
2018-03-14T06:10:31.825Z,4.10
2018-03-14T06:13:00.135Z,4.10
2018-03-14T06:15:28.481Z,4.20
2018-03-14T06:17:56.842Z,4.20
2018-03-14T06:20:25.960Z,4.30
2018-03-14T06:22:54.292Z,4.30
2018-03-14T06:25:22.782Z,4.30
2018-03-14T06:27:51.168Z,4.30
2018-03-14T06:30:19.582Z,4.30
2018-03-14T06:32:48.067Z,4.40
2018-03-14T06:35:17.258Z,4.50
2018-03-14T06:37:46.393Z,4.50
2018-03-14T06:40:14.768Z,4.40
2018-03-14T06:42:43.444Z,4.50
2018-03-14T06:45:11.820Z,4.50
2018-03-14T06:47:40.155Z,4.50
2018-03-14T06:50:09.376Z,4.50
2018-03-14T06:52:37.725Z,4.60
2018-03-14T06:55:06.078Z,4.60
2018-03-14T06:57:34.526Z,4.60
2018-03-14T07:00:15.503Z,4.60
2018-03-14T07:02:46.642Z,4.60
2018-03-14T07:05:26.917Z,4.70
2018-03-14T07:07:55.311Z,4.80
2018-03-14T07:10:23.783Z,4.80
2018-03-14T07:12:52.199Z,4.90
2018-03-14T07:15:20.847Z,4.90
2018-03-14T07:17:49.310Z,4.80
2018-03-14T07:20:17.700Z,4.80
2018-03-14T07:22:46.060Z,4.90
2018-03-14T07:25:14.526Z,4.90
2018-03-14T07:27:43.232Z,5.00
2018-03-14T07:30:11.692Z,5.00
2018-03-14T07:32:40.889Z,5.00
2018-03-14T07:35:09.241Z,5.00
2018-03-14T07:37:37.582Z,5.00
2018-03-14T07:40:05.935Z,5.10
2018-03-14T07:42:35.143Z,5.00
2018-03-14T07:45:03.519Z,5.00
2018-03-14T07:47:32.751Z,4.90
2018-03-14T07:50:01.736Z,4.90
2018-03-14T07:52:30.079Z,4.90
2018-03-14T07:54:59.198Z,5.00
2018-03-14T07:57:27.545Z,5.10
2018-03-14T07:59:55.898Z,5.20
2018-03-14T08:02:24.262Z,5.30
2018-03-14T08:04:52.602Z,5.30
2018-03-14T08:07:20.982Z,5.30
2018-03-14T08:09:50.142Z,5.30
2018-03-14T08:12:18.477Z,5.30
2018-03-14T08:14:46.905Z,5.30
2018-03-14T08:17:15.241Z,5.30
2018-03-14T08:19:43.602Z,5.40
2018-03-14T08:22:11.953Z,5.40
2018-03-14T08:24:40.309Z,5.30
2018-03-14T08:27:08.671Z,5.40
2018-03-14T08:29:37.003Z,5.50
2018-03-14T08:32:06.163Z,5.50
2018-03-14T08:34:34.521Z,5.40
2018-03-14T08:37:02.911Z,5.40
2018-03-14T08:39:31.330Z,5.40
2018-03-14T08:42:00.111Z,5.40
2018-03-14T08:44:28.424Z,5.40
2018-03-14T08:46:56.800Z,5.40
2018-03-14T08:49:25.205Z,5.50
2018-03-14T08:51:53.576Z,5.60
2018-03-14T08:54:21.943Z,5.60
2018-03-14T08:56:50.271Z,5.50
2018-03-14T08:59:19.516Z,5.60
2018-03-14T09:01:47.992Z,5.80
2018-03-14T09:04:17.093Z,5.90
2018-03-14T09:06:46.092Z,5.90
2018-03-14T09:09:15.192Z,5.90
2018-03-14T09:11:43.522Z,5.80
2018-03-14T09:14:11.888Z,5.90
2018-03-14T09:16:40.244Z,5.90
2018-03-14T09:19:08.861Z,6.00
2018-03-14T09:21:37.195Z,6.00
2018-03-14T09:24:05.662Z,6.10
2018-03-14T09:26:34.193Z,6.10
2018-03-14T09:29:02.588Z,6.10
2018-03-14T09:31:31.017Z,6.20
2018-03-14T09:33:59.376Z,6.20
2018-03-14T09:36:28.505Z,6.20
2018-03-14T09:38:56.872Z,6.10
2018-03-14T09:41:25.429Z,6.20
2018-03-14T09:43:54.027Z,6.10
2018-03-14T09:46:23.129Z,6.20
2018-03-14T09:48:51.497Z,6.20
2018-03-14T09:51:19.993Z,6.20
2018-03-14T09:53:49.119Z,6.10
2018-03-14T09:56:17.459Z,6.10
2018-03-14T09:58:46.561Z,6.20
2018-03-14T10:01:14.986Z,6.10
2018-03-14T10:03:43.440Z,6.20
2018-03-14T10:06:11.831Z,6.20
2018-03-14T10:08:40.213Z,6.20
2018-03-14T10:11:08.657Z,6.10
2018-03-14T10:13:37.757Z,6.20
2018-03-14T10:16:06.155Z,6.20
2018-03-14T10:18:34.476Z,6.20
2018-03-14T10:21:02.845Z,6.20
2018-03-14T10:23:31.214Z,6.20
2018-03-14T10:25:59.569Z,6.20
2018-03-14T10:28:27.961Z,6.10
2018-03-14T10:30:56.300Z,6.10
2018-03-14T10:33:24.659Z,6.10
2018-03-14T10:35:53.790Z,6.20
2018-03-14T10:38:22.160Z,6.20
2018-03-14T10:40:50.545Z,6.20
2018-03-14T10:43:18.878Z,6.20
2018-03-14T10:45:47.304Z,6.20
2018-03-14T10:48:16.405Z,6.30
2018-03-14T10:50:44.732Z,6.30
2018-03-14T10:53:13.070Z,6.30
2018-03-14T10:55:41.653Z,6.30
2018-03-14T10:58:09.985Z,6.30
2018-03-14T11:00:43.929Z,6.40
2018-03-14T11:03:18.353Z,6.30
2018-03-14T11:05:47.588Z,6.20
2018-03-14T11:08:15.967Z,6.20
2018-03-14T11:10:44.371Z,6.30
2018-03-14T11:13:12.707Z,6.30
2018-03-14T11:15:41.058Z,6.40
2018-03-14T11:18:09.480Z,6.50
2018-03-14T11:20:37.956Z,6.50
2018-03-14T11:23:06.400Z,6.50
2018-03-14T11:25:34.731Z,6.50
2018-03-14T11:28:03.189Z,6.60
2018-03-14T11:30:32.332Z,6.80
2018-03-14T11:33:00.759Z,6.80
2018-03-14T11:35:29.112Z,6.90
2018-03-14T11:37:58.244Z,6.90
2018-03-14T11:40:26.657Z,6.80
2018-03-14T11:42:55.011Z,6.90
2018-03-14T11:45:23.348Z,6.90
2018-03-14T11:47:51.815Z,6.90
2018-03-14T11:50:20.176Z,7.00
2018-03-14T11:52:48.594Z,7.00
2018-03-14T11:55:17.016Z,7.10
2018-03-14T11:57:45.636Z,7.10
2018-03-14T12:00:14.734Z,7.10
2018-03-14T12:02:43.121Z,7.00
2018-03-14T12:05:12.259Z,7.00
2018-03-14T12:07:40.796Z,7.00
2018-03-14T12:10:09.187Z,7.00
2018-03-14T12:12:37.520Z,7.00
2018-03-14T12:15:05.965Z,6.90
2018-03-14T12:17:34.367Z,7.00
2018-03-14T12:20:02.712Z,6.90
2018-03-14T12:22:31.109Z,6.90
2018-03-14T12:24:59.540Z,6.80
2018-03-14T12:27:27.913Z,6.70
2018-03-14T12:29:56.263Z,6.70
2018-03-14T12:32:24.658Z,6.70
2018-03-14T12:34:53.089Z,6.80
2018-03-14T12:37:21.547Z,6.90
2018-03-14T12:39:49.881Z,6.90
2018-03-14T12:42:18.304Z,6.80
2018-03-14T12:44:46.684Z,6.80
2018-03-14T12:47:15.820Z,6.80
2018-03-14T12:49:44.161Z,6.80
2018-03-14T12:52:12.647Z,6.80
2018-03-14T12:54:41.045Z,6.80
2018-03-14T12:57:09.550Z,6.80
2018-03-14T12:59:38.777Z,7.10
2018-03-14T13:02:07.171Z,7.10
2018-03-14T13:04:35.631Z,7.20
2018-03-14T13:07:03.996Z,7.20
2018-03-14T13:09:32.352Z,7.20
2018-03-14T13:12:00.852Z,7.20
2018-03-14T13:14:29.195Z,7.30
2018-03-14T13:16:57.551Z,7.40
2018-03-14T13:19:26.785Z,7.30
2018-03-14T13:21:55.910Z,7.10
2018-03-14T13:24:24.260Z,7.10
2018-03-14T13:26:52.727Z,7.00
2018-03-14T13:29:21.094Z,6.90
2018-03-14T13:31:49.434Z,6.80
2018-03-14T13:34:17.818Z,6.80
2018-03-14T13:36:46.189Z,6.80
2018-03-14T13:39:14.515Z,6.70
2018-03-14T13:41:43.643Z,6.60
2018-03-14T13:44:12.184Z,6.60
2018-03-14T13:46:40.564Z,6.60
2018-03-14T13:49:08.937Z,6.60
2018-03-14T13:51:37.518Z,6.60
2018-03-14T13:54:05.949Z,6.60
2018-03-14T13:56:35.143Z,6.80
2018-03-14T13:59:04.274Z,6.80
2018-03-14T14:01:32.689Z,6.80
2018-03-14T14:04:01.075Z,6.70
2018-03-14T14:06:29.390Z,6.70
2018-03-14T14:08:58.135Z,6.70
2018-03-14T14:11:26.428Z,6.70
2018-03-14T14:13:55.671Z,6.60
2018-03-14T14:16:24.086Z,6.60
2018-03-14T14:18:52.730Z,6.70
2018-03-14T14:21:21.170Z,6.80
2018-03-14T14:23:49.582Z,6.80
2018-03-14T14:26:18.009Z,6.90
2018-03-14T14:28:46.366Z,6.90
2018-03-14T14:31:14.834Z,6.90
2018-03-14T14:33:43.331Z,6.90
2018-03-14T14:36:11.695Z,6.80
2018-03-14T14:38:40.122Z,6.70
2018-03-14T14:41:08.468Z,6.60
2018-03-14T14:43:36.829Z,6.60
2018-03-14T14:46:05.179Z,6.70
2018-03-14T14:48:34.299Z,6.90
2018-03-14T14:51:02.706Z,6.90
2018-03-14T14:53:31.158Z,7.00
2018-03-14T14:55:59.510Z,7.00
2018-03-14T14:58:28.674Z,6.90
2018-03-14T15:00:57.156Z,6.90
2018-03-14T15:03:25.529Z,6.90
2018-03-14T15:05:53.985Z,6.90
2018-03-14T15:08:22.401Z,6.80
2018-03-14T15:10:50.807Z,6.80
2018-03-14T15:13:19.927Z,6.70
2018-03-14T15:15:48.627Z,6.70
2018-03-14T15:18:16.965Z,6.80
2018-03-14T15:20:45.392Z,6.80
2018-03-14T15:23:13.826Z,6.80
2018-03-14T15:25:42.216Z,6.80
2018-03-14T15:28:10.577Z,6.80
2018-03-14T15:30:38.973Z,6.80
2018-03-14T15:33:08.082Z,6.90
2018-03-14T15:35:36.545Z,6.90
2018-03-14T15:38:05.745Z,6.90
2018-03-14T15:40:34.946Z,6.90
2018-03-14T15:43:03.274Z,6.90
2018-03-14T15:45:31.652Z,6.80
2018-03-14T15:48:00.149Z,6.80
2018-03-14T15:50:28.540Z,6.80
2018-03-14T15:52:56.966Z,6.80
2018-03-14T15:55:25.515Z,6.80
2018-03-14T15:57:53.938Z,6.90
2018-03-14T16:00:22.277Z,6.90
2018-03-14T16:02:50.735Z,6.90
2018-03-14T16:05:19.066Z,6.90
2018-03-14T16:07:47.518Z,6.90
2018-03-14T16:10:15.957Z,6.90
2018-03-14T16:12:44.299Z,6.90
2018-03-14T16:15:12.696Z,6.90
2018-03-14T16:17:41.148Z,6.80
2018-03-14T16:20:10.244Z,6.80
2018-03-14T16:22:39.597Z,6.80
2018-03-14T16:25:07.958Z,6.80
2018-03-14T16:27:36.317Z,6.80
2018-03-14T16:30:04.742Z,6.70
2018-03-14T16:32:33.173Z,6.70
2018-03-14T16:35:01.534Z,6.60
2018-03-14T16:37:29.894Z,6.60
2018-03-14T16:39:58.356Z,6.50
2018-03-14T16:42:26.709Z,6.50
2018-03-14T16:44:55.117Z,6.40
2018-03-14T16:47:23.572Z,6.40
2018-03-14T16:49:51.907Z,6.40
2018-03-14T16:52:20.317Z,6.30
2018-03-14T16:54:50.094Z,6.30
2018-03-14T16:57:18.459Z,6.30
2018-03-14T16:59:46.893Z,6.20
2018-03-14T17:02:16.011Z,6.20
2018-03-14T17:04:44.355Z,6.10
2018-03-14T17:07:12.743Z,6.10
2018-03-14T17:09:41.122Z,6.10
2018-03-14T17:12:09.578Z,6.00
2018-03-14T17:14:37.925Z,6.00
2018-03-14T17:17:06.289Z,5.90
2018-03-14T17:19:34.643Z,5.90
2018-03-14T17:22:03.027Z,5.90
2018-03-14T17:24:31.386Z,5.90
2018-03-14T17:26:59.849Z,5.90
2018-03-14T17:29:28.197Z,5.80
2018-03-14T17:31:56.573Z,5.80
2018-03-14T17:34:24.913Z,5.70
2018-03-14T17:36:53.322Z,5.70
2018-03-14T17:39:21.696Z,5.70
2018-03-14T17:41:50.040Z,5.70
2018-03-14T17:44:19.138Z,5.70
2018-03-14T17:46:47.499Z,5.70
2018-03-14T17:49:16.087Z,5.70
2018-03-14T17:51:44.548Z,5.70
2018-03-14T17:54:13.062Z,5.70
2018-03-14T17:56:42.560Z,5.70
2018-03-14T17:59:10.949Z,5.60
2018-03-14T18:01:40.122Z,5.60
2018-03-14T18:04:08.499Z,5.60
2018-03-14T18:06:36.939Z,5.50
2018-03-14T18:09:05.312Z,5.50
2018-03-14T18:11:33.644Z,5.50
2018-03-14T18:14:02.020Z,5.50
2018-03-14T18:16:30.538Z,5.50
2018-03-14T18:18:58.964Z,5.40
2018-03-14T18:21:27.342Z,5.40
2018-03-14T18:23:55.836Z,5.40
2018-03-14T18:26:24.209Z,5.40
2018-03-14T18:28:52.547Z,5.40
2018-03-14T18:31:21.074Z,5.40
2018-03-14T18:33:49.614Z,5.30
2018-03-14T18:36:17.948Z,5.30
2018-03-14T18:38:46.290Z,5.30
2018-03-14T18:41:14.853Z,5.30
2018-03-14T18:43:43.327Z,5.30
2018-03-14T18:46:12.472Z,5.30
2018-03-14T18:48:40.819Z,5.20
2018-03-14T18:51:09.513Z,5.20
2018-03-14T18:53:37.828Z,5.20
2018-03-14T18:56:06.235Z,5.20
2018-03-14T18:58:35.385Z,5.20
2018-03-14T19:01:03.774Z,5.20
2018-03-14T19:03:32.214Z,5.10
2018-03-14T19:06:00.677Z,5.10
2018-03-14T19:08:29.014Z,5.10
2018-03-14T19:10:57.389Z,5.10
2018-03-14T19:13:25.733Z,5.10
2018-03-14T19:15:54.068Z,5.10
2018-03-14T19:18:23.204Z,5.10
2018-03-14T19:20:51.587Z,5.10
2018-03-14T19:23:20.725Z,5.00
2018-03-14T19:25:49.299Z,5.00
2018-03-14T19:28:17.632Z,5.00
2018-03-14T19:30:46.036Z,5.00
2018-03-14T19:33:14.406Z,5.00
2018-03-14T19:35:42.819Z,5.00
2018-03-14T19:38:11.156Z,5.00
2018-03-14T19:40:39.519Z,5.00
2018-03-14T19:43:08.632Z,5.00
2018-03-14T19:45:37.063Z,5.00
2018-03-14T19:48:05.411Z,5.00
2018-03-14T19:50:33.754Z,5.00
2018-03-14T19:53:02.850Z,5.10
2018-03-14T19:55:31.209Z,5.10
2018-03-14T19:58:00.442Z,5.20
2018-03-14T20:00:28.851Z,5.20
2018-03-14T20:02:57.206Z,5.20
2018-03-14T20:05:25.538Z,5.10
2018-03-14T20:07:53.932Z,5.10
2018-03-14T20:10:22.277Z,5.00
2018-03-14T20:12:50.630Z,4.90
2018-03-14T20:15:18.983Z,4.90
2018-03-14T20:17:48.089Z,4.80
2018-03-14T20:20:16.425Z,4.80
2018-03-14T20:22:44.834Z,4.80
2018-03-14T20:25:13.144Z,4.70
2018-03-14T20:27:41.530Z,4.70
2018-03-14T20:30:09.960Z,4.70
2018-03-14T20:32:38.293Z,4.70
2018-03-14T20:35:06.662Z,4.60
2018-03-14T20:37:35.000Z,4.60
2018-03-14T20:40:04.229Z,4.60
2018-03-14T20:42:32.557Z,4.50
2018-03-14T20:45:01.098Z,4.50
2018-03-14T20:47:30.160Z,4.40
2018-03-14T20:49:59.310Z,4.30
2018-03-14T20:52:27.643Z,4.30
2018-03-14T20:54:55.993Z,4.30
2018-03-14T20:57:24.379Z,4.20
2018-03-14T20:59:52.711Z,4.20
2018-03-14T21:02:21.064Z,4.10
2018-03-14T21:04:49.420Z,4.00
2018-03-14T21:07:17.745Z,3.90
2018-03-14T21:09:46.095Z,3.90
2018-03-14T21:12:14.441Z,3.80
2018-03-14T21:14:42.809Z,3.80
2018-03-14T21:17:11.172Z,3.70
2018-03-14T21:19:39.642Z,3.70
2018-03-14T21:22:08.018Z,3.60
2018-03-14T21:24:36.380Z,3.60
2018-03-14T21:27:04.717Z,3.50
2018-03-14T21:29:33.055Z,3.50
2018-03-14T21:32:01.417Z,3.40
2018-03-14T21:34:29.761Z,3.40
2018-03-14T21:36:58.996Z,3.40
2018-03-14T21:39:27.386Z,3.30
2018-03-14T21:41:55.744Z,3.30
2018-03-14T21:44:24.105Z,3.30
2018-03-14T21:46:53.348Z,3.30
2018-03-14T21:49:21.716Z,3.30
2018-03-14T21:51:50.040Z,3.20
2018-03-14T21:54:18.475Z,3.20
2018-03-14T21:56:46.823Z,3.10
2018-03-14T21:59:15.972Z,3.10
2018-03-14T22:01:44.333Z,3.10
2018-03-14T22:04:12.665Z,3.10
2018-03-14T22:06:41.118Z,3.00
2018-03-14T22:09:09.444Z,3.00
2018-03-14T22:11:38.574Z,3.00
2018-03-14T22:14:06.913Z,2.90
2018-03-14T22:16:35.342Z,3.00
2018-03-14T22:19:03.675Z,2.90
2018-03-14T22:21:32.809Z,2.90
2018-03-14T22:24:01.192Z,2.90
2018-03-14T22:26:29.561Z,2.90
2018-03-14T22:28:57.925Z,2.80
2018-03-14T22:31:27.009Z,2.80
2018-03-14T22:33:56.132Z,2.80
2018-03-14T22:36:24.507Z,2.70
2018-03-14T22:38:52.879Z,2.70
2018-03-14T22:41:21.226Z,2.70
2018-03-14T22:43:49.554Z,2.70
2018-03-14T22:46:17.902Z,2.70
2018-03-14T22:48:46.265Z,2.70
2018-03-14T22:51:14.629Z,2.60
2018-03-14T22:53:43.068Z,2.60
2018-03-14T22:56:11.405Z,2.60
2018-03-14T22:58:39.775Z,2.60
2018-03-14T23:01:08.120Z,2.50
2018-03-14T23:03:36.467Z,2.50
2018-03-14T23:06:05.015Z,2.50
2018-03-14T23:08:33.450Z,2.50
2018-03-14T23:11:01.797Z,2.50
2018-03-14T23:13:30.928Z,2.50
2018-03-14T23:15:59.250Z,2.50
2018-03-14T23:18:27.597Z,2.50
2018-03-14T23:20:56.025Z,2.50
2018-03-14T23:23:25.154Z,2.50
2018-03-14T23:25:53.482Z,2.50
2018-03-14T23:28:21.851Z,2.50
2018-03-14T23:30:50.345Z,2.50
2018-03-14T23:33:18.685Z,2.50
2018-03-14T23:35:47.036Z,2.50
2018-03-14T23:38:15.418Z,2.50
2018-03-14T23:40:43.768Z,2.40
2018-03-14T23:43:12.913Z,2.40
2018-03-14T23:45:41.257Z,2.40
2018-03-14T23:48:10.369Z,2.40
2018-03-14T23:50:38.729Z,2.40
2018-03-14T23:53:07.832Z,2.30
2018-03-14T23:55:36.548Z,2.30
2018-03-14T23:58:04.950Z,2.30
